Mississippi River (Missouri), New Madrid (07024175)

StateMissouriLatestUnknown (373000 cfs)
RiverMississippi RiverRatingObservedEstimated
Updated2020-08-14 5:00 (32 minutes ago)Flood - The river is flooding. Obstacles can be treacherous or deadly. The river should be avoided at this stage for casual trips and definitely for the inexperienced. Trips should be attempted only with protective gear and equipment.Flood(none)(none)
Discharge373000 cfs (median: 366000 cfs)High - The river is high and potentially dangerous, especially for the young and / or inexperienced. Normal stream obstacles are sometimes difficult to navigate. Extended distances can be attempted, but canoe travel may not be advisable.High(none)(none)
Height12.33 feetGood - Conditions are ideal for a canoe or kayak. Boats typically will drag on fewer than one-quarter of riffles, if at all, and portages are unnecessary or rare. Normal float lengths can be attempted without a problem.Good(none)(none)
TrendSteady (falling over 24 hours)Low - River is low but can still be floated. Some riffles are okay but most come with significant dragging and might need a portage. Float lengths should be reduced to accommodate low flow, dragging, and portages.Low(none)(none)
USGSExternal icon USGS Site (External icon Google Maps)Poor - River is too low to float comfortably. Most or all riffles will drag or must be portaged and some obstacles (such as slick shelf rock) cause undue problems. Avoid the river at this stage for casual paddling trips.Poor(none)(none)

Trending Data

Plot Image

Trips for Mississippi River (Missouri), New Madrid (07024175)

DateStartEndDistanceConditionDischargeHeightFishingDetails

A total of 0 rows are displayed.

Condition Descriptions

Fishing Conditions

Fish Species

Notes

Classic Trip List

The classic River Trips application is still available for use. It is updated with the new system using a data retrofit. It is no longer maintained. The original River Trips application is no longer updated (as of 1 Dec 2016) but can be checked for errors or for the condition of the data before it was converted to the new system.

Gauge Data Table

ObservationHeightDischargeMaximum
Discharge
Minimum
Discharge
Mean
Discharge
P05P10P20P25P50
(Median)
P75P80P90P95
2020-08-14 05:00 12.33 373000 440000 (2019) 332000 (2017) 376000 332000 341000 366000 422000 440000
2020-08-14 04:00 12.33 373000 440000 (2019) 332000 (2017) 376000 332000 341000 366000 422000 440000
2020-08-14 03:00 12.38 374000 440000 (2019) 332000 (2017) 376000 332000 341000 366000 422000 440000
2020-08-14 02:00 12.38 374000 440000 (2019) 332000 (2017) 376000 332000 341000 366000 422000 440000
2020-08-14 01:00 12.42 375000 440000 (2019) 332000 (2017) 376000 332000 341000 366000 422000 440000
2020-08-14 00:00 12.44 375000 440000 (2019) 332000 (2017) 376000 332000 341000 366000 422000 440000
2020-08-13 23:00 12.52 377000 438000 (2019) 337000 (2017) 385000 337000 343000 382000 429000 438000
2020-08-13 22:00 12.37 373000 438000 (2019) 337000 (2017) 385000 337000 343000 382000 429000 438000
2020-08-13 21:00 12.38 374000 438000 (2019) 337000 (2017) 385000 337000 343000 382000 429000 438000
2020-08-13 20:00 12.59 378000 438000 (2019) 337000 (2017) 385000 337000 343000 382000 429000 438000
2020-08-13 19:00 12.54 377000 438000 (2019) 337000 (2017) 385000 337000 343000 382000 429000 438000
2020-08-13 18:00 12.67 380000 438000 (2019) 337000 (2017) 385000 337000 343000 382000 429000 438000
2020-08-13 17:00 12.13 368000 438000 (2019) 337000 (2017) 385000 337000 343000 382000 429000 438000
2020-08-13 16:00 12.72 381000 438000 (2019) 337000 (2017) 385000 337000 343000 382000 429000 438000
2020-08-13 15:00 12.77 382000 438000 (2019) 337000 (2017) 385000 337000 343000 382000 429000 438000
2020-08-13 14:00 12.82 383000 438000 (2019) 337000 (2017) 385000 337000 343000 382000 429000 438000
2020-08-13 13:00 12.83 383000 438000 (2019) 337000 (2017) 385000 337000 343000 382000 429000 438000
2020-08-13 12:00 12.87 384000 438000 (2019) 337000 (2017) 385000 337000 343000 382000 429000 438000
2020-08-13 11:00 12.88 385000 438000 (2019) 337000 (2017) 385000 337000 343000 382000 429000 438000
2020-08-13 10:00 12.90 385000 438000 (2019) 337000 (2017) 385000 337000 343000 382000 429000 438000
2020-08-13 09:00 12.88 385000 438000 (2019) 337000 (2017) 385000 337000 343000 382000 429000 438000
2020-08-13 08:00 12.89 385000 438000 (2019) 337000 (2017) 385000 337000 343000 382000 429000 438000
2020-08-13 07:00 12.90 385000 438000 (2019) 337000 (2017) 385000 337000 343000 382000 429000 438000
2020-08-13 06:00 12.85 384000 438000 (2019) 337000 (2017) 385000 337000 343000 382000 429000 438000
2020-08-13 05:00 12.85 384000 438000 (2019) 337000 (2017) 385000 337000 343000 382000 429000 438000
2020-08-13 04:00 12.82 383000 438000 (2019) 337000 (2017) 385000 337000 343000 382000 429000 438000
2020-08-13 03:00 12.71 381000 438000 (2019) 337000 (2017) 385000 337000 343000 382000 429000 438000
2020-08-13 02:00 12.74 381000 438000 (2019) 337000 (2017) 385000 337000 343000 382000 429000 438000
2020-08-13 01:00 12.67 380000 438000 (2019) 337000 (2017) 385000 337000 343000 382000 429000 438000
2020-08-13 00:00 12.72 381000 438000 (2019) 337000 (2017) 385000 337000 343000 382000 429000 438000
2020-08-12 23:00 12.73 381000 458000 (2019) 336000 (2017) 390000 336000 338000 384000 450000 458000
2020-08-12 22:00 12.71 381000 458000 (2019) 336000 (2017) 390000 336000 338000 384000 450000 458000
2020-08-12 21:00 12.72 381000 458000 (2019) 336000 (2017) 390000 336000 338000 384000 450000 458000
2020-08-12 20:00 12.55 377000 458000 (2019) 336000 (2017) 390000 336000 338000 384000 450000 458000
2020-08-12 19:00 12.40 374000 458000 (2019) 336000 (2017) 390000 336000 338000 384000 450000 458000
2020-08-12 18:00 12.64 379000 458000 (2019) 336000 (2017) 390000 336000 338000 384000 450000 458000
2020-08-12 17:00 12.65 380000 458000 (2019) 336000 (2017) 390000 336000 338000 384000 450000 458000
2020-08-12 16:00 12.89 385000 458000 (2019) 336000 (2017) 390000 336000 338000 384000 450000 458000
2020-08-12 15:00 12.97 387000 458000 (2019) 336000 (2017) 390000 336000 338000 384000 450000 458000
2020-08-12 14:00 13.05 388000 458000 (2019) 336000 (2017) 390000 336000 338000 384000 450000 458000
2020-08-12 13:00 13.15 390000 458000 (2019) 336000 (2017) 390000 336000 338000 384000 450000 458000
2020-08-12 12:00 13.22 392000 458000 (2019) 336000 (2017) 390000 336000 338000 384000 450000 458000
2020-08-12 11:00 13.33 394000 458000 (2019) 336000 (2017) 390000 336000 338000 384000 450000 458000
2020-08-12 10:00 13.40 396000 458000 (2019) 336000 (2017) 390000 336000 338000 384000 450000 458000
2020-08-12 09:00 13.49 398000 458000 (2019) 336000 (2017) 390000 336000 338000 384000 450000 458000
2020-08-12 08:00 13.55 399000 458000 (2019) 336000 (2017) 390000 336000 338000 384000 450000 458000
2020-08-12 07:00 13.60 400000 458000 (2019) 336000 (2017) 390000 336000 338000 384000 450000 458000
2020-08-12 06:00 13.66 402000 458000 (2019) 336000 (2017) 390000 336000 338000 384000 450000 458000
2020-08-12 05:00 13.69 402000 458000 (2019) 336000 (2017) 390000 336000 338000 384000 450000 458000
2020-08-12 04:00 13.72 403000 458000 (2019) 336000 (2017) 390000 336000 338000 384000 450000 458000
2020-08-12 03:00 13.75 404000 458000 (2019) 336000 (2017) 390000 336000 338000 384000 450000 458000
2020-08-12 02:00 13.75 404000 458000 (2019) 336000 (2017) 390000 336000 338000 384000 450000 458000
2020-08-12 01:00 13.75 404000 458000 (2019) 336000 (2017) 390000 336000 338000 384000 450000 458000
2020-08-12 00:00 13.74 404000 458000 (2019) 336000 (2017) 390000 336000 338000 384000 450000 458000
2020-08-11 23:00 13.75 404000 476000 (2019) 318000 (2017) 392000 318000 324000 388000 465000 476000
2020-08-11 22:00 13.73 403000 476000 (2019) 318000 (2017) 392000 318000 324000 388000 465000 476000
2020-08-11 21:00 13.73 403000 476000 (2019) 318000 (2017) 392000 318000 324000 388000 465000 476000
2020-08-11 20:00 13.73 403000 476000 (2019) 318000 (2017) 392000 318000 324000 388000 465000 476000
2020-08-11 19:00 13.70 403000 476000 (2019) 318000 (2017) 392000 318000 324000 388000 465000 476000
2020-08-11 18:00 13.67 402000 476000 (2019) 318000 (2017) 392000 318000 324000 388000 465000 476000
2020-08-11 17:00 13.72 403000 476000 (2019) 318000 (2017) 392000 318000 324000 388000 465000 476000
2020-08-11 16:00 13.52 399000 476000 (2019) 318000 (2017) 392000 318000 324000 388000 465000 476000
2020-08-11 15:00 13.64 401000 476000 (2019) 318000 (2017) 392000 318000 324000 388000 465000 476000
2020-08-11 14:00 13.60 400000 476000 (2019) 318000 (2017) 392000 318000 324000 388000 465000 476000
2020-08-11 13:00 13.60 400000 476000 (2019) 318000 (2017) 392000 318000 324000 388000 465000 476000
2020-08-11 12:00 13.58 400000 476000 (2019) 318000 (2017) 392000 318000 324000 388000 465000 476000
2020-08-11 11:00 13.54 399000 476000 (2019) 318000 (2017) 392000 318000 324000 388000 465000 476000
2020-08-11 10:00 13.50 398000 476000 (2019) 318000 (2017) 392000 318000 324000 388000 465000 476000
2020-08-11 09:00 13.43 397000 476000 (2019) 318000 (2017) 392000 318000 324000 388000 465000 476000
2020-08-11 08:00 13.42 396000 476000 (2019) 318000 (2017) 392000 318000 324000 388000 465000 476000
2020-08-11 07:00 13.38 396000 476000 (2019) 318000 (2017) 392000 318000 324000 388000 465000 476000
2020-08-11 06:00 13.35 395000 476000 (2019) 318000 (2017) 392000 318000 324000 388000 465000 476000
2020-08-11 05:00 13.32 394000 476000 (2019) 318000 (2017) 392000 318000 324000 388000 465000 476000
2020-08-11 04:00 13.28 393000 476000 (2019) 318000 (2017) 392000 318000 324000 388000 465000 476000
2020-08-11 03:00 13.20 392000 476000 (2019) 318000 (2017) 392000 318000 324000 388000 465000 476000
2020-08-11 02:00 13.22 392000 476000 (2019) 318000 (2017) 392000 318000 324000 388000 465000 476000
2020-08-11 01:00 13.16 391000 476000 (2019) 318000 (2017) 392000 318000 324000 388000 465000 476000
2020-08-11 00:00 12.85 384000 476000 (2019) 318000 (2017) 392000 318000 324000 388000 465000 476000

A total of 78 rows are displayed for years 2016 through 2019.